sensor_id;sensor_type;location;lat;lon;timestamp;pressure;altitude;pressure_sealevel;temperature;humidity
12789;BME280;6458;42.710;23.192;2023-12-29T14:52:48;94176.91;;;9.92;74.76
12789;BME280;6458;42.710;23.192;2023-12-29T15:06:21;94181.50;;;9.40;79.42
12789;BME280;6458;42.710;23.192;2023-12-29T15:19:47;94198.84;;;8.89;83.20
12789;BME280;6458;42.710;23.192;2023-12-29T15:26:18;94197.13;;;8.63;85.74
12789;BME280;6458;42.710;23.192;2023-12-29T15:29:14;94197.72;;;8.45;88.01
12789;BME280;6458;42.710;23.192;2023-12-29T15:32:51;94194.66;;;8.32;89.88
12789;BME280;6458;42.710;23.192;2023-12-29T15:39:15;94202.25;;;8.10;91.93
12789;BME280;6458;42.710;23.192;2023-12-29T15:42:23;94200.50;;;7.84;92.90
12789;BME280;6458;42.710;23.192;2023-12-29T15:45:12;94202.56;;;7.73;94.03
12789;BME280;6458;42.710;23.192;2023-12-29T15:47:52;94214.66;;;7.71;95.05
12789;BME280;6458;42.710;23.192;2023-12-29T15:50:22;94214.66;;;7.71;97.04
12789;BME280;6458;42.710;23.192;2023-12-29T15:52:57;94210.41;;;7.70;96.35
12789;BME280;6458;42.710;23.192;2023-12-29T15:56:03;94212.53;;;7.55;95.87
12789;BME280;6458;42.710;23.192;2023-12-29T15:58:45;94208.13;;;7.59;95.65
12789;BME280;6458;42.710;23.192;2023-12-29T16:01:21;94216.78;;;7.58;96.00
12789;BME280;6458;42.710;23.192;2023-12-29T16:03:50;94224.03;;;7.45;97.29
12789;BME280;6458;42.710;23.192;2023-12-29T16:06:18;94222.59;;;7.35;98.68
12789;BME280;6458;42.710;23.192;2023-12-29T16:08:55;94220.38;;;7.23;99.78
12789;BME280;6458;42.710;23.192;2023-12-29T16:11:27;94229.28;;;7.11;100.00
12789;BME280;6458;42.710;23.192;2023-12-29T16:13:57;94226.88;;;7.05;100.00
12789;BME280;6458;42.710;23.192;2023-12-29T16:16:27;94229.34;;;7.09;100.00
12789;BME280;6458;42.710;23.192;2023-12-29T16:18:55;94232.06;;;7.03;100.00
12789;BME280;6458;42.710;23.192;2023-12-29T16:21:22;94236.41;;;7.01;100.00
12789;BME280;6458;42.710;23.192;2023-12-29T16:23:49;94228.84;;;6.95;100.00
12789;BME280;6458;42.710;23.192;2023-12-29T16:26:16;94229.09;;;6.86;100.00
12789;BME280;6458;42.710;23.192;2023-12-29T16:28:43;94234.41;;;6.80;100.00
12789;BME280;6458;42.710;23.192;2023-12-29T16:31:12;94222.56;;;6.72;100.00
12789;BME280;6458;42.710;23.192;2023-12-29T16:33:39;94226.81;;;6.73;100.00
12789;BME280;6458;42.710;23.192;2023-12-29T16:36:08;57554.78;;;-144.77;100.00
12789;BME280;6458;42.710;23.192;2023-12-29T16:38:47;94237.97;;;6.74;100.00
12789;BME280;6458;42.710;23.192;2023-12-29T16:41:15;94229.25;;;6.80;100.00
12789;BME280;6458;42.710;23.192;2023-12-29T16:43:42;57554.78;;;6.81;100.00
12789;BME280;6458;42.710;23.192;2023-12-29T16:46:09;94230.78;;;6.87;100.00
12789;BME280;6458;42.710;23.192;2023-12-29T16:48:42;94231.75;;;6.83;100.00
12789;BME280;6458;42.710;23.192;2023-12-29T16:51:09;94226.41;;;6.90;100.00
12789;BME280;6458;42.710;23.192;2023-12-29T16:53:37;94234.09;;;6.92;100.00
12789;BME280;6458;42.710;23.192;2023-12-29T16:56:05;94228.75;;;6.98;100.00
12789;BME280;6458;42.710;23.192;2023-12-29T16:58:32;94231.25;;;7.01;100.00
12789;BME280;6458;42.710;23.192;2023-12-29T17:00:59;94232.47;;;6.88;100.00
12789;BME280;6458;42.710;23.192;2023-12-29T17:03:26;94240.91;;;6.94;100.00
12789;BME280;6458;42.710;23.192;2023-12-29T17:05:56;94233.25;;;6.91;100.00
12789;BME280;6458;42.710;23.192;2023-12-29T17:08:25;94230.78;;;6.87;100.00
12789;BME280;6458;42.710;23.192;2023-12-29T17:10:55;94239.31;;;6.89;100.00
12789;BME280;6458;42.710;23.192;2023-12-29T17:13:21;94242.03;;;6.84;100.00
12789;BME280;6458;42.710;23.192;2023-12-29T17:15:48;94242.13;;;6.81;100.00
12789;BME280;6458;42.710;23.192;2023-12-29T17:18:16;94244.63;;;6.83;100.00
12789;BME280;6458;42.710;23.192;2023-12-29T17:20:43;94241.31;;;6.78;100.00
12789;BME280;6458;42.710;23.192;2023-12-29T17:23:12;94237.88;;;6.79;100.00
12789;BME280;6458;42.710;23.192;2023-12-29T17:25:39;94243.94;;;6.76;100.00
12789;BME280;6458;42.710;23.192;2023-12-29T17:28:06;94246.66;;;6.71;100.00
12789;BME280;6458;42.710;23.192;2023-12-29T17:30:33;57554.78;;;-144.77;100.00
12789;BME280;6458;42.710;23.192;2023-12-29T17:32:59;57554.78;;;-144.77;100.00
12789;BME280;6458;42.710;23.192;2023-12-29T17:35:26;57554.78;;;-144.77;100.00
12789;BME280;6458;42.710;23.192;2023-12-29T17:37:53;57554.78;;;-144.77;100.00
12789;BME280;6458;42.710;23.192;2023-12-29T17:40:22;57554.78;;;-144.77;100.00
12789;BME280;6458;42.710;23.192;2023-12-29T17:42:49;57554.78;;;-144.77;100.00
12789;BME280;6458;42.710;23.192;2023-12-29T17:45:16;57554.78;;;-144.77;100.00
12789;BME280;6458;42.710;23.192;2023-12-29T17:47:43;57554.78;;;-144.77;100.00
12789;BME280;6458;42.710;23.192;2023-12-29T17:50:10;57554.78;;;-144.77;100.00
12789;BME280;6458;42.710;23.192;2023-12-29T17:52:39;57554.78;;;-144.77;100.00
12789;BME280;6458;42.710;23.192;2023-12-29T17:55:06;57554.78;;;-144.77;100.00
12789;BME280;6458;42.710;23.192;2023-12-29T17:57:35;57554.78;;;-144.77;100.00
12789;BME280;6458;42.710;23.192;2023-12-29T18:00:03;57554.78;;;-144.77;100.00
12789;BME280;6458;42.710;23.192;2023-12-29T18:02:30;57554.78;;;-144.77;100.00
12789;BME280;6458;42.710;23.192;2023-12-29T18:04:58;57554.78;;;-144.77;100.00
12789;BME280;6458;42.710;23.192;2023-12-29T18:07:25;57554.78;;;-144.77;100.00
12789;BME280;6458;42.710;23.192;2023-12-29T18:09:52;57554.78;;;-144.77;100.00
12789;BME280;6458;42.710;23.192;2023-12-29T18:12:19;57554.78;;;-144.77;100.00
12789;BME280;6458;42.710;23.192;2023-12-29T18:14:47;57554.78;;;-144.77;100.00
12789;BME280;6458;42.710;23.192;2023-12-29T18:17:18;57554.78;;;-144.77;100.00
12789;BME280;6458;42.710;23.192;2023-12-29T18:19:47;57554.78;;;-144.77;100.00
12789;BME280;6458;42.710;23.192;2023-12-29T18:22:15;57554.78;;;-144.77;100.00
12789;BME280;6458;42.710;23.192;2023-12-29T18:24:43;57554.78;;;-144.77;100.00
12789;BME280;6458;42.710;23.192;2023-12-29T18:27:12;57554.78;;;-144.77;100.00
12789;BME280;6458;42.710;23.192;2023-12-29T18:29:39;57554.78;;;-144.77;100.00
12789;BME280;6458;42.710;23.192;2023-12-29T18:32:08;57554.78;;;-144.77;100.00
12789;BME280;6458;42.710;23.192;2023-12-29T18:34:35;57554.78;;;-144.77;100.00
12789;BME280;6458;42.710;23.192;2023-12-29T18:37:03;57554.78;;;-144.77;100.00
12789;BME280;6458;42.710;23.192;2023-12-29T18:39:30;57554.78;;;-144.77;100.00
12789;BME280;6458;42.710;23.192;2023-12-29T18:41:59;57554.78;;;-144.77;100.00
12789;BME280;6458;42.710;23.192;2023-12-29T18:44:28;57554.78;;;-144.77;100.00
12789;BME280;6458;42.710;23.192;2023-12-29T18:46:57;57554.78;;;-144.77;100.00
12789;BME280;6458;42.710;23.192;2023-12-29T18:49:25;57554.78;;;-144.77;100.00
12789;BME280;6458;42.710;23.192;2023-12-29T18:51:52;57554.78;;;-144.77;100.00
12789;BME280;6458;42.710;23.192;2023-12-29T18:54:20;57554.78;;;-144.77;100.00
12789;BME280;6458;42.710;23.192;2023-12-29T18:56:47;57554.78;;;-144.77;100.00
12789;BME280;6458;42.710;23.192;2023-12-29T18:59:14;57554.78;;;-144.77;100.00
12789;BME280;6458;42.710;23.192;2023-12-29T19:01:45;57554.78;;;-144.77;100.00
12789;BME280;6458;42.710;23.192;2023-12-29T19:04:12;57554.78;;;-144.77;100.00
12789;BME280;6458;42.710;23.192;2023-12-29T19:06:42;57554.78;;;-144.77;100.00
12789;BME280;6458;42.710;23.192;2023-12-29T19:09:09;57554.78;;;-144.77;100.00
12789;BME280;6458;42.710;23.192;2023-12-29T19:11:36;57554.78;;;-144.77;100.00
12789;BME280;6458;42.710;23.192;2023-12-29T19:14:03;57554.78;;;-144.77;100.00
12789;BME280;6458;42.710;23.192;2023-12-29T19:16:31;57554.78;;;-144.77;100.00
12789;BME280;6458;42.710;23.192;2023-12-29T19:18:58;57554.78;;;-144.77;100.00
12789;BME280;6458;42.710;23.192;2023-12-29T19:21:26;57554.78;;;-144.77;100.00
12789;BME280;6458;42.710;23.192;2023-12-29T19:23:56;57554.78;;;-144.77;100.00
12789;BME280;6458;42.710;23.192;2023-12-29T19:26:24;57554.78;;;-144.77;100.00
12789;BME280;6458;42.710;23.192;2023-12-29T19:28:52;57554.78;;;-144.77;100.00
12789;BME280;6458;42.710;23.192;2023-12-29T19:31:20;57554.78;;;-144.77;100.00
12789;BME280;6458;42.710;23.192;2023-12-29T19:33:50;57554.78;;;-144.77;100.00
12789;BME280;6458;42.710;23.192;2023-12-29T19:36:18;57554.78;;;-144.77;100.00
12789;BME280;6458;42.710;23.192;2023-12-29T19:38:49;57554.78;;;-144.77;100.00
12789;BME280;6458;42.710;23.192;2023-12-29T19:41:19;57554.78;;;-144.77;100.00
12789;BME280;6458;42.710;23.192;2023-12-29T19:43:49;57554.78;;;-144.77;100.00
12789;BME280;6458;42.710;23.192;2023-12-29T19:46:17;57554.78;;;-144.77;100.00
12789;BME280;6458;42.710;23.192;2023-12-29T19:48:44;57554.78;;;-144.77;100.00
12789;BME280;6458;42.710;23.192;2023-12-29T19:51:11;57554.78;;;-144.77;100.00
12789;BME280;6458;42.710;23.192;2023-12-29T19:53:38;57554.78;;;-144.77;100.00
12789;BME280;6458;42.710;23.192;2023-12-29T19:56:05;57554.78;;;-144.77;100.00
12789;BME280;6458;42.710;23.192;2023-12-29T19:58:34;57554.78;;;-144.77;100.00
12789;BME280;6458;42.710;23.192;2023-12-29T20:01:03;57554.78;;;-144.77;100.00
12789;BME280;6458;42.710;23.192;2023-12-29T20:03:31;57554.78;;;-144.77;100.00
12789;BME280;6458;42.710;23.192;2023-12-29T20:05:58;57554.78;;;-144.77;100.00
12789;BME280;6458;42.710;23.192;2023-12-29T20:08:25;57554.78;;;-144.77;100.00
12789;BME280;6458;42.710;23.192;2023-12-29T20:10:52;57554.78;;;-144.77;100.00
12789;BME280;6458;42.710;23.192;2023-12-29T20:13:19;57554.78;;;-144.77;100.00
12789;BME280;6458;42.710;23.192;2023-12-29T20:15:48;57554.78;;;-144.77;100.00
12789;BME280;6458;42.710;23.192;2023-12-29T20:18:17;57554.78;;;-144.77;100.00
12789;BME280;6458;42.710;23.192;2023-12-29T20:20:44;57554.78;;;-144.77;100.00
12789;BME280;6458;42.710;23.192;2023-12-29T20:23:11;57554.78;;;-144.77;100.00
12789;BME280;6458;42.710;23.192;2023-12-29T20:25:38;57554.78;;;-144.77;100.00
12789;BME280;6458;42.710;23.192;2023-12-29T20:28:09;57554.78;;;-144.77;100.00
12789;BME280;6458;42.710;23.192;2023-12-29T20:30:36;57554.78;;;-144.77;100.00
12789;BME280;6458;42.710;23.192;2023-12-29T20:33:05;57554.78;;;-144.77;100.00
12789;BME280;6458;42.710;23.192;2023-12-29T20:35:32;57554.78;;;-144.77;100.00
12789;BME280;6458;42.710;23.192;2023-12-29T20:37:59;57554.78;;;-144.77;100.00
12789;BME280;6458;42.710;23.192;2023-12-29T20:40:26;57554.78;;;-144.77;100.00
12789;BME280;6458;42.710;23.192;2023-12-29T20:42:52;57554.78;;;-144.77;100.00
12789;BME280;6458;42.710;23.192;2023-12-29T20:45:20;57554.78;;;-144.77;100.00
12789;BME280;6458;42.710;23.192;2023-12-29T20:47:48;57554.78;;;-144.77;100.00
12789;BME280;6458;42.710;23.192;2023-12-29T20:50:16;57554.78;;;-144.77;100.00
12789;BME280;6458;42.710;23.192;2023-12-29T20:52:43;57554.78;;;-144.77;100.00
12789;BME280;6458;42.710;23.192;2023-12-29T20:55:10;57554.78;;;-144.77;100.00
12789;BME280;6458;42.710;23.192;2023-12-29T20:57:37;57554.78;;;-144.77;100.00
12789;BME280;6458;42.710;23.192;2023-12-29T21:00:05;57554.78;;;-144.77;100.00
12789;BME280;6458;42.710;23.192;2023-12-29T21:02:33;57554.78;;;-144.77;100.00
12789;BME280;6458;42.710;23.192;2023-12-29T21:05:04;57554.78;;;-144.77;100.00
12789;BME280;6458;42.710;23.192;2023-12-29T21:07:36;57554.78;;;-144.77;100.00
12789;BME280;6458;42.710;23.192;2023-12-29T21:10:03;57554.78;;;-144.77;100.00
12789;BME280;6458;42.710;23.192;2023-12-29T21:12:38;57554.78;;;-144.77;100.00
12789;BME280;6458;42.710;23.192;2023-12-29T21:15:05;57554.78;;;-144.77;100.00
12789;BME280;6458;42.710;23.192;2023-12-29T21:17:32;57554.78;;;-144.77;100.00
12789;BME280;6458;42.710;23.192;2023-12-29T21:20:00;57554.78;;;-144.77;100.00
12789;BME280;6458;42.710;23.192;2023-12-29T21:22:28;57554.78;;;-144.77;100.00
12789;BME280;6458;42.710;23.192;2023-12-29T21:24:57;57554.78;;;-144.77;100.00
12789;BME280;6458;42.710;23.192;2023-12-29T21:27:27;57554.78;;;-144.77;100.00
12789;BME280;6458;42.710;23.192;2023-12-29T21:29:56;57554.78;;;-144.77;100.00
12789;BME280;6458;42.710;23.192;2023-12-29T21:32:23;57554.78;;;-144.77;100.00
12789;BME280;6458;42.710;23.192;2023-12-29T21:34:54;57554.78;;;-144.77;100.00
12789;BME280;6458;42.710;23.192;2023-12-29T21:37:21;57554.78;;;-144.77;100.00
12789;BME280;6458;42.710;23.192;2023-12-29T21:39:48;57554.78;;;-144.77;100.00
12789;BME280;6458;42.710;23.192;2023-12-29T21:42:17;57554.78;;;-144.77;100.00
12789;BME280;6458;42.710;23.192;2023-12-29T21:44:44;57554.78;;;-144.77;100.00
12789;BME280;6458;42.710;23.192;2023-12-29T21:47:13;57554.78;;;-144.77;100.00
12789;BME280;6458;42.710;23.192;2023-12-29T21:49:40;57554.78;;;-144.77;100.00
12789;BME280;6458;42.710;23.192;2023-12-29T21:52:07;57554.78;;;-144.77;100.00
12789;BME280;6458;42.710;23.192;2023-12-29T21:54:35;57554.78;;;-144.77;100.00
12789;BME280;6458;42.710;23.192;2023-12-29T21:57:02;57554.78;;;-144.77;100.00
12789;BME280;6458;42.710;23.192;2023-12-29T21:59:32;57554.78;;;-144.77;100.00
12789;BME280;6458;42.710;23.192;2023-12-29T22:01:59;57554.78;;;-144.77;100.00
12789;BME280;6458;42.710;23.192;2023-12-29T22:04:26;57554.78;;;-144.77;100.00
12789;BME280;6458;42.710;23.192;2023-12-29T22:06:53;57554.78;;;-144.77;100.00
12789;BME280;6458;42.710;23.192;2023-12-29T22:09:20;57554.78;;;-144.77;100.00
12789;BME280;6458;42.710;23.192;2023-12-29T22:11:47;57554.78;;;-144.77;100.00
12789;BME280;6458;42.710;23.192;2023-12-29T22:14:14;57554.78;;;-144.77;100.00
12789;BME280;6458;42.710;23.192;2023-12-29T22:16:42;57554.78;;;-144.77;100.00
12789;BME280;6458;42.710;23.192;2023-12-29T22:19:09;57554.78;;;-144.77;100.00
12789;BME280;6458;42.710;23.192;2023-12-29T22:22:05;57554.78;;;-144.77;100.00
12789;BME280;6458;42.710;23.192;2023-12-29T22:24:32;57554.78;;;-144.77;100.00
12789;BME280;6458;42.710;23.192;2023-12-29T22:27:00;57554.78;;;-144.77;100.00
12789;BME280;6458;42.710;23.192;2023-12-29T22:29:29;57554.78;;;-144.77;100.00
12789;BME280;6458;42.710;23.192;2023-12-29T22:31:57;57554.78;;;-144.77;100.00
12789;BME280;6458;42.710;23.192;2023-12-29T22:34:28;57554.78;;;-144.77;100.00
12789;BME280;6458;42.710;23.192;2023-12-29T22:36:55;57554.78;;;-144.77;100.00
12789;BME280;6458;42.710;23.192;2023-12-29T22:39:22;57554.78;;;-144.77;100.00
12789;BME280;6458;42.710;23.192;2023-12-29T22:41:49;57554.78;;;-144.77;100.00
12789;BME280;6458;42.710;23.192;2023-12-29T22:44:16;57554.78;;;-144.77;100.00
12789;BME280;6458;42.710;23.192;2023-12-29T22:46:43;57554.78;;;-144.77;100.00
12789;BME280;6458;42.710;23.192;2023-12-29T22:49:11;57554.78;;;-144.77;100.00
12789;BME280;6458;42.710;23.192;2023-12-29T22:51:38;57554.78;;;-144.77;100.00
12789;BME280;6458;42.710;23.192;2023-12-29T22:54:05;57554.78;;;-144.77;100.00
12789;BME280;6458;42.710;23.192;2023-12-29T22:56:33;57554.78;;;-144.77;100.00
12789;BME280;6458;42.710;23.192;2023-12-29T22:59:01;57554.78;;;-144.77;100.00
12789;BME280;6458;42.710;23.192;2023-12-29T23:01:28;57554.78;;;-144.77;100.00
12789;BME280;6458;42.710;23.192;2023-12-29T23:03:54;57554.78;;;-144.77;100.00
12789;BME280;6458;42.710;23.192;2023-12-29T23:06:23;57554.78;;;-144.77;100.00
12789;BME280;6458;42.710;23.192;2023-12-29T23:08:50;57554.78;;;-144.77;100.00
12789;BME280;6458;42.710;23.192;2023-12-29T23:11:17;57554.78;;;-144.77;100.00
12789;BME280;6458;42.710;23.192;2023-12-29T23:13:44;57554.78;;;-144.77;100.00
12789;BME280;6458;42.710;23.192;2023-12-29T23:16:11;57554.78;;;-144.77;100.00
12789;BME280;6458;42.710;23.192;2023-12-29T23:18:38;57554.78;;;-144.77;100.00
12789;BME280;6458;42.710;23.192;2023-12-29T23:21:05;57554.78;;;-144.77;100.00
12789;BME280;6458;42.710;23.192;2023-12-29T23:23:59;57554.78;;;-144.77;100.00
12789;BME280;6458;42.710;23.192;2023-12-29T23:26:26;57554.78;;;-144.77;100.00
12789;BME280;6458;42.710;23.192;2023-12-29T23:28:53;57554.78;;;-144.77;100.00
12789;BME280;6458;42.710;23.192;2023-12-29T23:31:20;57554.78;;;-144.77;100.00
12789;BME280;6458;42.710;23.192;2023-12-29T23:33:47;57554.78;;;-144.77;100.00
12789;BME280;6458;42.710;23.192;2023-12-29T23:36:14;57554.78;;;-144.77;100.00
12789;BME280;6458;42.710;23.192;2023-12-29T23:38:41;57554.78;;;-144.77;100.00
12789;BME280;6458;42.710;23.192;2023-12-29T23:41:09;57554.78;;;-144.77;100.00
12789;BME280;6458;42.710;23.192;2023-12-29T23:43:39;57554.78;;;-144.77;100.00
12789;BME280;6458;42.710;23.192;2023-12-29T23:46:07;57554.78;;;-144.77;100.00
12789;BME280;6458;42.710;23.192;2023-12-29T23:48:34;57554.78;;;-144.77;100.00
12789;BME280;6458;42.710;23.192;2023-12-29T23:51:01;57554.78;;;-144.77;100.00
12789;BME280;6458;42.710;23.192;2023-12-29T23:53:28;57554.78;;;-144.77;100.00
12789;BME280;6458;42.710;23.192;2023-12-29T23:55:55;57554.78;;;-144.77;100.00
12789;BME280;6458;42.710;23.192;2023-12-29T23:58:27;57554.78;;;-144.77;100.00
